createdAt,value
2017-06-21T00:00:43.466Z,0
2017-06-21T00:01:55.948Z,0
2017-06-21T00:03:08.462Z,0
2017-06-21T00:04:20.986Z,0
2017-06-21T00:05:33.508Z,0
2017-06-21T00:06:45.432Z,0
2017-06-21T00:07:57.966Z,0
2017-06-21T00:09:10.489Z,0
2017-06-21T00:10:23.017Z,0
2017-06-21T00:11:35.242Z,0
2017-06-21T00:12:47.734Z,0
2017-06-21T00:14:00.251Z,0
2017-06-21T00:15:12.777Z,0
2017-06-21T00:16:25.017Z,0
2017-06-21T00:17:37.567Z,0
2017-06-21T00:18:50.091Z,0
2017-06-21T00:20:02.309Z,0
2017-06-21T00:21:14.832Z,0
2017-06-21T00:22:27.351Z,0
2017-06-21T00:23:39.573Z,0
2017-06-21T00:24:51.809Z,0
2017-06-21T00:26:04.643Z,0
2017-06-21T00:27:17.137Z,0
2017-06-21T00:28:29.337Z,0
2017-06-21T00:29:41.855Z,0
2017-06-21T00:30:54.080Z,0
2017-06-21T00:32:06.613Z,0
2017-06-21T00:33:19.155Z,0
2017-06-21T00:34:31.681Z,0
2017-06-21T00:35:44.227Z,0
2017-06-21T00:36:56.751Z,0
2017-06-21T00:38:09.275Z,0
2017-06-21T00:39:21.793Z,0
2017-06-21T00:40:34.332Z,0
2017-06-21T00:41:46.857Z,0
2017-06-21T00:42:59.139Z,0
2017-06-21T00:44:11.676Z,0
2017-06-21T00:45:23.916Z,0
2017-06-21T00:46:36.464Z,0
2017-06-21T00:47:49.285Z,0
2017-06-21T00:49:01.814Z,0
2017-06-21T00:50:14.382Z,0
2017-06-21T00:51:26.907Z,0
2017-06-21T00:52:39.469Z,0
2017-06-21T00:53:51.999Z,0
2017-06-21T00:55:04.508Z,0
2017-06-21T00:56:17.029Z,0
2017-06-21T00:57:29.561Z,0
2017-06-21T00:58:42.103Z,0
2017-06-21T00:59:54.641Z,0
2017-06-21T01:01:06.862Z,0
2017-06-21T01:02:19.386Z,0
2017-06-21T01:03:31.639Z,0
2017-06-21T01:04:44.133Z,0
2017-06-21T01:05:56.671Z,0
2017-06-21T01:07:09.205Z,0
2017-06-21T01:08:21.772Z,0
2017-06-21T01:09:34.587Z,0
2017-06-21T01:10:47.133Z,0
2017-06-21T01:11:59.679Z,0
2017-06-21T01:13:12.207Z,0
2017-06-21T01:14:24.424Z,0
2017-06-21T01:15:36.346Z,0
2017-06-21T01:16:48.871Z,0
2017-06-21T01:18:01.389Z,0
2017-06-21T01:19:13.613Z,0
2017-06-21T01:20:26.457Z,0
2017-06-21T01:21:39.004Z,0
2017-06-21T01:22:51.543Z,0
2017-06-21T01:24:04.067Z,0
2017-06-21T01:25:16.609Z,0
2017-06-21T01:26:29.134Z,0
2017-06-21T01:27:41.646Z,0
2017-06-21T01:28:54.172Z,0
2017-06-21T01:30:06.696Z,0
2017-06-21T01:31:19.217Z,0
2017-06-21T01:32:31.741Z,0
2017-06-21T01:33:44.261Z,0
2017-06-21T01:34:56.780Z,0
2017-06-21T01:36:09.307Z,0
2017-06-21T01:37:21.827Z,0
2017-06-21T01:38:34.367Z,0
2017-06-21T01:39:46.582Z,0
2017-06-21T01:40:59.101Z,0
2017-06-21T01:42:11.584Z,0
2017-06-21T01:43:24.154Z,0
2017-06-21T01:44:36.715Z,0
2017-06-21T01:45:48.943Z,0
2017-06-21T01:47:00.861Z,0
2017-06-21T01:48:13.106Z,0
2017-06-21T01:49:25.634Z,0
2017-06-21T01:50:37.854Z,0
2017-06-21T01:51:50.081Z,0
2017-06-21T01:53:02.286Z,0
2017-06-21T01:54:14.815Z,0
2017-06-21T01:55:27.340Z,0
2017-06-21T01:56:39.558Z,0
2017-06-21T01:57:52.399Z,0
2017-06-21T01:59:04.952Z,0
2017-06-21T02:00:17.224Z,0
2017-06-21T02:01:29.749Z,0
2017-06-21T02:02:42.263Z,0
2017-06-21T02:03:54.782Z,0
2017-06-21T02:05:07.303Z,0
2017-06-21T02:06:19.803Z,0
2017-06-21T02:07:32.045Z,0
2017-06-21T02:08:44.561Z,0
2017-06-21T02:09:57.117Z,0
2017-06-21T02:11:09.350Z,0
2017-06-21T02:12:21.874Z,0
2017-06-21T02:13:34.100Z,0
2017-06-21T02:14:46.320Z,0
2017-06-21T02:15:58.866Z,0
2017-06-21T02:17:11.391Z,0
2017-06-21T02:18:23.615Z,0
2017-06-21T02:19:36.182Z,0
2017-06-21T02:20:48.729Z,0
2017-06-21T02:22:01.275Z,0
2017-06-21T02:23:13.520Z,0
2017-06-21T02:24:26.054Z,0
2017-06-21T02:25:38.525Z,0
2017-06-21T02:26:50.758Z,0
2017-06-21T02:28:03.304Z,0
2017-06-21T02:29:15.542Z,0
2017-06-21T02:30:28.111Z,0
2017-06-21T02:31:40.034Z,0
2017-06-21T02:32:52.579Z,0
2017-06-21T02:34:05.085Z,5
2017-06-21T02:35:17.643Z,5
2017-06-21T02:36:30.189Z,5
2017-06-21T02:37:42.692Z,5
2017-06-21T02:38:55.218Z,5
2017-06-21T02:40:07.477Z,5
2017-06-21T02:41:20.001Z,5
2017-06-21T02:42:32.244Z,5
2017-06-21T02:43:44.499Z,5
2017-06-21T02:44:57.047Z,10
2017-06-21T02:46:09.565Z,10
2017-06-21T02:47:22.085Z,10
2017-06-21T02:48:34.326Z,10
2017-06-21T02:49:46.569Z,10
2017-06-21T02:50:59.090Z,15
2017-06-21T02:52:11.619Z,15
2017-06-21T02:53:24.135Z,15
2017-06-21T02:54:36.690Z,15
2017-06-21T02:55:49.228Z,15
2017-06-21T02:57:01.732Z,20
2017-06-21T02:58:14.273Z,20
2017-06-21T02:59:26.840Z,20
2017-06-21T03:00:39.368Z,20
2017-06-21T03:01:51.863Z,20
2017-06-21T03:03:04.635Z,25
2017-06-21T03:04:16.857Z,25
2017-06-21T03:05:29.396Z,25
2017-06-21T03:06:41.922Z,25
2017-06-21T03:07:54.444Z,30
2017-06-21T03:09:06.994Z,30
2017-06-21T03:10:19.533Z,30
2017-06-21T03:11:32.053Z,30
2017-06-21T03:12:44.279Z,35
2017-06-21T03:13:56.524Z,35
2017-06-21T03:15:09.066Z,35
2017-06-21T03:16:21.590Z,35
2017-06-21T03:17:34.083Z,40
2017-06-21T03:18:46.599Z,40
2017-06-21T03:19:58.758Z,40
2017-06-21T03:21:11.270Z,40
2017-06-21T03:22:23.201Z,45
2017-06-21T03:23:35.733Z,45
2017-06-21T03:24:48.287Z,45
2017-06-21T03:26:00.831Z,45
2017-06-21T03:27:13.371Z,45
2017-06-21T03:28:25.891Z,50
2017-06-21T03:29:38.420Z,50
2017-06-21T03:30:50.655Z,50
2017-06-21T03:32:03.203Z,55
2017-06-21T03:33:15.722Z,55
2017-06-21T03:34:28.249Z,55
2017-06-21T03:35:40.153Z,55
2017-06-21T03:36:52.687Z,60
2017-06-21T03:38:04.931Z,60
2017-06-21T03:39:17.466Z,60
2017-06-21T03:40:30.002Z,60
2017-06-21T03:41:42.805Z,65
2017-06-21T03:42:55.051Z,65
2017-06-21T03:44:07.592Z,65
2017-06-21T03:45:20.117Z,65
2017-06-21T03:46:32.339Z,70
2017-06-21T03:47:44.599Z,70
2017-06-21T03:48:56.843Z,70
2017-06-21T03:50:09.390Z,70
2017-06-21T03:51:21.619Z,75
2017-06-21T03:52:34.119Z,75
2017-06-21T03:53:46.660Z,75
2017-06-21T03:54:59.181Z,75
2017-06-21T03:56:11.730Z,75
2017-06-21T03:57:23.997Z,80
2017-06-21T03:58:36.522Z,80
2017-06-21T03:59:49.039Z,80
2017-06-21T04:01:01.281Z,80
2017-06-21T04:02:13.810Z,80
2017-06-21T04:03:26.324Z,85
2017-06-21T04:04:38.877Z,85
2017-06-21T04:05:51.423Z,85
2017-06-21T04:07:03.943Z,85
2017-06-21T04:08:16.742Z,85
2017-06-21T04:09:29.274Z,90
2017-06-21T04:10:41.798Z,90
2017-06-21T04:11:53.742Z,90
2017-06-21T04:13:06.248Z,90
2017-06-21T04:14:18.498Z,90
2017-06-21T04:15:31.037Z,90
2017-06-21T04:16:43.257Z,95
2017-06-21T04:17:55.784Z,95
2017-06-21T04:19:08.605Z,95
2017-06-21T04:20:21.120Z,95
2017-06-21T04:21:33.641Z,95
2017-06-21T04:22:46.162Z,95
2017-06-21T04:23:58.404Z,100
2017-06-21T04:25:10.928Z,100
2017-06-21T04:26:23.153Z,100
2017-06-21T04:27:35.404Z,100
2017-06-21T04:28:47.944Z,100
2017-06-21T04:30:00.180Z,105
2017-06-21T04:31:12.738Z,105
2017-06-21T04:32:25.282Z,105
2017-06-21T04:33:37.504Z,105
2017-06-21T04:34:50.022Z,105
2017-06-21T04:36:02.242Z,110
2017-06-21T04:37:14.788Z,110
2017-06-21T04:38:27.312Z,110
2017-06-21T04:39:39.837Z,110
2017-06-21T04:40:52.393Z,110
2017-06-21T04:42:04.921Z,115
2017-06-21T04:43:17.126Z,115
2017-06-21T04:44:29.681Z,115
2017-06-21T04:45:41.887Z,115
2017-06-21T04:46:54.434Z,115
2017-06-21T04:48:06.704Z,120
2017-06-21T04:49:19.222Z,120
2017-06-21T04:50:31.436Z,120
2017-06-21T04:51:43.956Z,120
2017-06-21T04:52:56.482Z,125
2017-06-21T04:54:09.022Z,125
2017-06-21T04:55:21.551Z,125
2017-06-21T04:56:34.093Z,130
2017-06-21T04:57:46.947Z,130
2017-06-21T04:58:59.464Z,135
2017-06-21T05:00:11.702Z,135
2017-06-21T05:01:24.232Z,140
2017-06-21T05:02:36.785Z,140
2017-06-21T05:03:49.053Z,140
2017-06-21T05:05:01.543Z,145
2017-06-21T05:06:13.764Z,160
2017-06-21T05:07:26.041Z,165
2017-06-21T05:08:37.702Z,190
2017-06-21T05:09:50.206Z,205
2017-06-21T05:11:02.741Z,210
2017-06-21T05:12:14.647Z,225
2017-06-21T05:13:27.219Z,260
2017-06-21T05:14:39.762Z,240
2017-06-21T05:15:52.307Z,230
2017-06-21T05:17:04.845Z,240
2017-06-21T05:18:17.373Z,250
2017-06-21T05:19:29.819Z,280
2017-06-21T05:20:42.344Z,310
2017-06-21T05:21:54.904Z,340
2017-06-21T05:23:07.437Z,315
2017-06-21T05:24:19.983Z,270
2017-06-21T05:25:32.216Z,275
2017-06-21T05:26:44.766Z,400
2017-06-21T05:27:57.317Z,450
2017-06-21T05:29:09.866Z,405
2017-06-21T05:30:22.429Z,340
2017-06-21T05:31:34.957Z,390
2017-06-21T05:32:46.877Z,345
2017-06-21T05:33:59.124Z,240
2017-06-21T05:35:11.695Z,200
2017-06-21T05:36:24.216Z,190
2017-06-21T05:37:36.436Z,210
2017-06-21T05:38:48.658Z,230
2017-06-21T05:40:01.205Z,265
2017-06-21T05:41:13.996Z,285
2017-06-21T05:42:26.493Z,185
2017-06-21T05:43:38.747Z,180
2017-06-21T05:44:51.301Z,185
2017-06-21T05:46:03.556Z,180
2017-06-21T05:47:16.100Z,180
2017-06-21T05:48:28.617Z,180
2017-06-21T05:49:41.172Z,185
2017-06-21T05:50:53.715Z,190
2017-06-21T05:52:05.955Z,190
2017-06-21T05:53:18.482Z,205
2017-06-21T05:54:31.029Z,205
2017-06-21T05:55:43.572Z,200
2017-06-21T05:56:56.094Z,200
2017-06-21T05:58:08.624Z,205
2017-06-21T05:59:20.865Z,210
2017-06-21T06:00:33.380Z,220
2017-06-21T06:01:45.605Z,225
2017-06-21T06:02:58.422Z,235
2017-06-21T06:04:10.952Z,240
2017-06-21T06:05:23.189Z,260
2017-06-21T06:06:35.689Z,275
2017-06-21T06:07:48.481Z,290
2017-06-21T06:09:01.029Z,330
2017-06-21T06:10:13.252Z,365
2017-06-21T06:11:25.493Z,435
2017-06-21T06:12:37.720Z,425
2017-06-21T06:13:50.265Z,330
2017-06-21T06:15:02.783Z,340
2017-06-21T06:16:14.705Z,330
2017-06-21T06:17:27.240Z,335
2017-06-21T06:18:39.748Z,360
2017-06-21T06:19:52.282Z,555
2017-06-21T06:21:04.537Z,755
2017-06-21T06:22:16.759Z,830
2017-06-21T06:23:29.282Z,910
2017-06-21T06:24:41.494Z,980
2017-06-21T06:25:54.026Z,985
2017-06-21T06:27:06.241Z,1015
2017-06-21T06:28:18.479Z,955
2017-06-21T06:29:31.033Z,805
2017-06-21T06:30:43.253Z,830
2017-06-21T06:31:55.518Z,960
2017-06-21T06:33:07.767Z,980
2017-06-21T06:34:20.346Z,1025
2017-06-21T06:35:32.587Z,880
2017-06-21T06:36:44.829Z,1000
2017-06-21T06:37:57.383Z,1020
2017-06-21T06:39:09.946Z,1045
2017-06-21T06:40:22.474Z,1015
2017-06-21T06:41:35.023Z,1100
2017-06-21T06:42:46.945Z,1110
2017-06-21T06:43:58.884Z,1115
2017-06-21T06:45:11.429Z,1105
2017-06-21T06:46:23.671Z,1090
2017-06-21T06:47:36.242Z,1095
2017-06-21T06:48:48.470Z,1095
2017-06-21T06:50:01.038Z,1110
2017-06-21T06:51:12.964Z,1115
2017-06-21T06:52:25.505Z,1065
2017-06-21T06:53:37.155Z,1060
2017-06-21T06:54:49.426Z,1105
2017-06-21T06:56:01.089Z,1135
2017-06-21T06:57:13.339Z,1140
2017-06-21T06:58:25.610Z,1140
2017-06-21T06:59:37.258Z,1135
2017-06-21T07:00:49.494Z,1155
2017-06-21T07:02:02.026Z,1175
2017-06-21T07:03:14.546Z,1205
2017-06-21T07:04:26.839Z,1205
2017-06-21T07:05:38.764Z,1260
2017-06-21T07:06:51.307Z,1260
2017-06-21T07:08:03.870Z,1325
2017-06-21T07:09:16.449Z,1290
2017-06-21T07:10:29.012Z,1320
2017-06-21T07:11:41.591Z,1275
2017-06-21T07:12:54.141Z,1350
2017-06-21T07:14:06.399Z,1405
2017-06-21T07:15:18.952Z,1370
2017-06-21T07:16:31.502Z,1400
2017-06-21T07:17:43.747Z,1435
2017-06-21T07:18:56.565Z,1455
2017-06-21T07:20:09.114Z,1490
2017-06-21T07:21:21.057Z,1485
2017-06-21T07:22:32.999Z,1480
2017-06-21T07:23:45.553Z,1535
2017-06-21T07:24:57.815Z,1535
2017-06-21T07:26:10.058Z,1545
2017-06-21T07:27:22.312Z,760
2017-06-21T07:28:34.849Z,1525
2017-06-21T07:29:47.082Z,1660
2017-06-21T07:30:59.326Z,1655
2017-06-21T07:32:11.613Z,1660
2017-06-21T07:33:24.143Z,1690
2017-06-21T07:34:36.708Z,1635
2017-06-21T07:35:48.968Z,1725
2017-06-21T07:37:01.531Z,1690
2017-06-21T07:38:14.096Z,1735
2017-06-21T07:39:26.700Z,1730
2017-06-21T07:40:39.587Z,1745
2017-06-21T07:41:51.840Z,1890
2017-06-21T07:43:04.412Z,1870
2017-06-21T07:44:16.975Z,1585
2017-06-21T07:45:29.543Z,1805
2017-06-21T07:46:42.087Z,1465
2017-06-21T07:47:54.037Z,1830
2017-06-21T07:49:05.980Z,1905
2017-06-21T07:50:18.527Z,2000
2017-06-21T07:51:31.080Z,1955
2017-06-21T07:52:43.637Z,1930
2017-06-21T07:53:56.197Z,1975
2017-06-21T07:55:08.763Z,2015
2017-06-21T07:56:21.341Z,1965
2017-06-21T07:57:33.863Z,1980
2017-06-21T07:58:46.422Z,1980
2017-06-21T07:59:58.654Z,2065
2017-06-21T08:01:11.216Z,2030
2017-06-21T08:02:23.796Z,2180
2017-06-21T08:03:36.066Z,2185
2017-06-21T08:04:48.627Z,2165
2017-06-21T08:06:00.873Z,2040
2017-06-21T08:07:13.419Z,2175
2017-06-21T08:08:25.939Z,2200
2017-06-21T08:09:38.194Z,2285
2017-06-21T08:10:50.424Z,2280
2017-06-21T08:12:02.986Z,2225
2017-06-21T08:13:15.553Z,2280
2017-06-21T08:14:28.081Z,2200
2017-06-21T08:15:40.627Z,2260
2017-06-21T08:16:52.890Z,2355
2017-06-21T08:18:05.720Z,2240
2017-06-21T08:19:17.957Z,2225
2017-06-21T08:20:30.536Z,2275
2017-06-21T08:21:43.107Z,2345
2017-06-21T08:22:55.349Z,2325
2017-06-21T08:24:07.912Z,2275
2017-06-21T08:25:19.869Z,2415
2017-06-21T08:26:32.413Z,2555
2017-06-21T08:27:44.975Z,2535
2017-06-21T08:28:57.523Z,2420
2017-06-21T08:30:10.099Z,2510
2017-06-21T08:31:22.653Z,2605
2017-06-21T08:32:34.620Z,2585
2017-06-21T08:33:46.872Z,2545
2017-06-21T08:34:59.462Z,2655
2017-06-21T08:36:12.008Z,2655
2017-06-21T08:37:24.253Z,2685
2017-06-21T08:38:36.800Z,2575
2017-06-21T08:39:49.046Z,2645
2017-06-21T08:41:01.604Z,2725
2017-06-21T08:42:14.160Z,2765
2017-06-21T08:43:26.410Z,2685
2017-06-21T08:44:38.655Z,2715
2017-06-21T08:45:50.914Z,2840
2017-06-21T08:47:03.462Z,2760
2017-06-21T08:48:15.716Z,2845
2017-06-21T08:49:28.288Z,2845
2017-06-21T08:50:40.921Z,2710
2017-06-21T08:51:53.175Z,2895
2017-06-21T08:53:05.439Z,3050
2017-06-21T08:54:17.999Z,3015
2017-06-21T08:55:30.261Z,2890
2017-06-21T08:56:42.513Z,2940
2017-06-21T08:57:54.177Z,2905
2017-06-21T08:59:06.727Z,2960
2017-06-21T09:00:18.990Z,2870
2017-06-21T09:01:31.524Z,2995
2017-06-21T09:02:44.123Z,3040
2017-06-21T09:03:56.385Z,3020
2017-06-21T09:05:08.630Z,3040
2017-06-21T09:06:20.876Z,3020
2017-06-21T09:07:33.115Z,2920
2017-06-21T09:08:45.691Z,3140
2017-06-21T09:09:58.267Z,3140
2017-06-21T09:11:10.831Z,3135
2017-06-21T09:12:23.357Z,3235
2017-06-21T09:13:35.898Z,3255
2017-06-21T09:14:48.169Z,3215
2017-06-21T09:16:00.719Z,3310
2017-06-21T09:17:12.964Z,3200
2017-06-21T09:18:25.206Z,3135
2017-06-21T09:19:37.150Z,3035
2017-06-21T09:20:49.720Z,2960
2017-06-21T09:22:02.291Z,3240
2017-06-21T09:23:14.848Z,3315
2017-06-21T09:24:27.418Z,3040
2017-06-21T09:25:40.017Z,3440
2017-06-21T09:26:52.302Z,3525
2017-06-21T09:28:04.874Z,3415
2017-06-21T09:29:16.852Z,3450
2017-06-21T09:30:29.103Z,3335
2017-06-21T09:31:41.683Z,3515
2017-06-21T09:32:53.915Z,3470
2017-06-21T09:34:06.485Z,3225
2017-06-21T09:35:19.055Z,3560
2017-06-21T09:36:31.575Z,3585
2017-06-21T09:37:44.120Z,3395
2017-06-21T09:38:56.396Z,3420
2017-06-21T09:40:08.687Z,3570
2017-06-21T09:41:20.929Z,3535
2017-06-21T09:42:33.546Z,3425
2017-06-21T09:43:45.845Z,3435
2017-06-21T09:44:58.113Z,3565
2017-06-21T09:46:10.383Z,3610
2017-06-21T09:47:22.629Z,3490
2017-06-21T09:48:34.587Z,3520
2017-06-21T09:49:46.832Z,3470
2017-06-21T09:50:59.400Z,3775
2017-06-21T09:52:11.626Z,3875
2017-06-21T09:53:23.873Z,3715
2017-06-21T09:54:36.455Z,3640
2017-06-21T09:55:49.027Z,3695
2017-06-21T09:57:01.302Z,3660
2017-06-21T09:58:13.885Z,3655
2017-06-21T09:59:26.447Z,3630
2017-06-21T10:00:39.025Z,3535
2017-06-21T10:01:51.610Z,3520
2017-06-21T10:03:03.533Z,3715
2017-06-21T10:04:15.799Z,3640
2017-06-21T10:05:28.368Z,3720
2017-06-21T10:06:40.925Z,3710
2017-06-21T10:07:53.168Z,3795
2017-06-21T10:09:05.739Z,3870
2017-06-21T10:10:18.302Z,3685
2017-06-21T10:11:30.266Z,3560
2017-06-21T10:12:42.869Z,3880
2017-06-21T10:13:55.143Z,3850
2017-06-21T10:15:07.387Z,4180
2017-06-21T10:16:19.657Z,4160
2017-06-21T10:17:32.239Z,3875
2017-06-21T10:18:44.488Z,3705
2017-06-21T10:19:57.077Z,3555
2017-06-21T10:21:09.629Z,4050
2017-06-21T10:22:21.878Z,4125
2017-06-21T10:23:34.144Z,4075
2017-06-21T10:24:46.704Z,3965
2017-06-21T10:25:59.259Z,3970
2017-06-21T10:27:11.502Z,3900
2017-06-21T10:28:23.467Z,3985
2017-06-21T10:29:36.040Z,3525
2017-06-21T10:30:48.011Z,3850
2017-06-21T10:32:00.262Z,3945
2017-06-21T10:33:12.829Z,3850
2017-06-21T10:34:24.785Z,4195
2017-06-21T10:35:37.325Z,3870
2017-06-21T10:36:48.676Z,3880
2017-06-21T10:38:00.921Z,4015
2017-06-21T10:39:13.514Z,4185
2017-06-21T10:40:26.084Z,4130
2017-06-21T10:41:38.329Z,3790
2017-06-21T10:42:50.603Z,3550
2017-06-21T10:44:03.191Z,3925
2017-06-21T10:45:15.760Z,3690
2017-06-21T10:46:28.030Z,3725
2017-06-21T10:47:40.563Z,3810
2017-06-21T10:48:52.804Z,3550
2017-06-21T10:50:05.055Z,3595
2017-06-21T10:51:17.617Z,3930
2017-06-21T10:52:29.866Z,3920
2017-06-21T10:53:42.414Z,3725
2017-06-21T10:54:54.363Z,3480
2017-06-21T10:56:06.333Z,3825
2017-06-21T10:57:18.883Z,3980
2017-06-21T10:58:31.446Z,3625
2017-06-21T10:59:44.009Z,3565
2017-06-21T11:00:56.281Z,3490
2017-06-21T11:02:08.559Z,3585
2017-06-21T11:03:21.133Z,3345
2017-06-21T11:04:33.671Z,3505
2017-06-21T11:05:46.268Z,3470
2017-06-21T11:06:58.518Z,2970
2017-06-21T11:08:11.065Z,2970
2017-06-21T11:09:23.613Z,3240
2017-06-21T11:10:36.223Z,3315
2017-06-21T11:11:48.771Z,3115
2017-06-21T11:13:00.447Z,2910
2017-06-21T11:14:12.994Z,2720
2017-06-21T11:15:25.540Z,2740
2017-06-21T11:16:38.079Z,2650
2017-06-21T11:17:50.556Z,2605
2017-06-21T11:19:03.109Z,2530
2017-06-21T11:20:15.666Z,2550
2017-06-21T11:21:28.240Z,2545
2017-06-21T11:22:40.490Z,2420
2017-06-21T11:23:52.715Z,2025
2017-06-21T11:25:05.256Z,1855
2017-06-21T11:26:17.806Z,2380
2017-06-21T11:27:30.348Z,1630
2017-06-21T11:28:42.898Z,1955
2017-06-21T11:29:55.461Z,2140
2017-06-21T11:31:08.014Z,2035
2017-06-21T11:32:20.559Z,1795
2017-06-21T11:33:33.124Z,1635
2017-06-21T11:34:45.702Z,1890
2017-06-21T11:35:58.245Z,1975
2017-06-21T11:37:10.496Z,1960
2017-06-21T11:38:23.041Z,1915
2017-06-21T11:39:35.600Z,1740
2017-06-21T11:40:48.131Z,1650
2017-06-21T11:42:00.392Z,1845
2017-06-21T11:43:12.645Z,1870
2017-06-21T11:44:24.912Z,1840
2017-06-21T11:45:37.482Z,1760
2017-06-21T11:46:49.457Z,1835
2017-06-21T11:48:01.726Z,1950
2017-06-21T11:49:14.304Z,2025
2017-06-21T11:50:26.574Z,2110
2017-06-21T11:51:39.122Z,2295
2017-06-21T11:52:51.366Z,3155
2017-06-21T11:54:03.609Z,4965
2017-06-21T11:55:16.179Z,6230
2017-06-21T11:56:28.731Z,6615
2017-06-21T11:57:40.696Z,5120
2017-06-21T11:58:51.759Z,4030
2017-06-21T12:00:03.119Z,3605
2017-06-21T12:01:15.063Z,3655
2017-06-21T12:02:27.326Z,3440
2017-06-21T12:03:38.383Z,2990
2017-06-21T12:04:50.664Z,3485
2017-06-21T12:06:02.040Z,3145
2017-06-21T12:07:14.294Z,2965
2017-06-21T12:08:26.263Z,3315
2017-06-21T12:09:37.916Z,3335
2017-06-21T12:10:49.856Z,2845
2017-06-21T12:12:01.816Z,2820
2017-06-21T12:13:13.747Z,2845
2017-06-21T12:14:25.707Z,2975
2017-06-21T12:15:37.692Z,2680
2017-06-21T12:16:49.035Z,2735
2017-06-21T12:18:00.355Z,2875
2017-06-21T12:19:12.606Z,3155
2017-06-21T12:20:24.544Z,3055
2017-06-21T12:21:36.191Z,3210
2017-06-21T12:22:48.735Z,3215
2017-06-21T12:24:00.389Z,3325
2017-06-21T12:25:12.045Z,2775
2017-06-21T12:26:22.773Z,3030
2017-06-21T12:27:34.745Z,3345
2017-06-21T12:28:46.695Z,3570
2017-06-21T12:29:57.729Z,4445
2017-06-21T12:31:10.314Z,4415
2017-06-21T12:32:22.553Z,4460
2017-06-21T12:33:34.199Z,4135
2017-06-21T12:34:45.888Z,3985
2017-06-21T12:35:58.434Z,3805
2017-06-21T12:37:11.008Z,3560
2017-06-21T12:38:23.561Z,3660
2017-06-21T12:39:36.104Z,3470
2017-06-21T12:40:48.350Z,2940
2017-06-21T12:42:00.898Z,3745
2017-06-21T12:43:12.252Z,3360
2017-06-21T12:44:23.912Z,3690
2017-06-21T12:45:35.884Z,3980
2017-06-21T12:46:48.130Z,3845
2017-06-21T12:48:00.694Z,3840
2017-06-21T12:49:12.925Z,3665
2017-06-21T12:50:25.193Z,3690
2017-06-21T12:51:37.760Z,3640
2017-06-21T12:52:49.452Z,3825
2017-06-21T12:54:01.683Z,3765
2017-06-21T12:55:13.934Z,4080
2017-06-21T12:56:26.214Z,4165
2017-06-21T12:57:38.501Z,3950
2017-06-21T12:58:50.439Z,3750
2017-06-21T13:00:02.992Z,3370
2017-06-21T13:01:14.656Z,3560
2017-06-21T13:02:27.202Z,3555
2017-06-21T13:03:39.722Z,3895
2017-06-21T13:04:52.268Z,3820
2017-06-21T13:06:04.498Z,3890
2017-06-21T13:07:17.081Z,3880
2017-06-21T13:08:29.311Z,3720
2017-06-21T13:09:41.557Z,4060
2017-06-21T13:10:53.798Z,3815
2017-06-21T13:12:05.444Z,3820
2017-06-21T13:13:17.365Z,3430
2017-06-21T13:14:29.640Z,3040
2017-06-21T13:15:42.206Z,3150
2017-06-21T13:16:55.003Z,3460
2017-06-21T13:18:06.669Z,3480
2017-06-21T13:19:18.925Z,3540
2017-06-21T13:20:30.891Z,3460
2017-06-21T13:21:43.441Z,3205
2017-06-21T13:22:56.004Z,3100
2017-06-21T13:24:08.556Z,2950
2017-06-21T13:25:21.120Z,2910
2017-06-21T13:26:33.345Z,3065
2017-06-21T13:27:45.900Z,3335
2017-06-21T13:28:58.466Z,3190
2017-06-21T13:30:10.986Z,3130
2017-06-21T13:31:23.532Z,2855
2017-06-21T13:32:36.057Z,3255
2017-06-21T13:33:48.651Z,3435
2017-06-21T13:35:00.885Z,3835
2017-06-21T13:36:13.116Z,4020
2017-06-21T13:37:25.682Z,4260
2017-06-21T13:38:38.233Z,4895
2017-06-21T13:39:50.796Z,4490
2017-06-21T13:41:03.024Z,4300
2017-06-21T13:42:15.288Z,4235
2017-06-21T13:43:27.541Z,4300
2017-06-21T13:44:40.087Z,4635
2017-06-21T13:45:52.033Z,4610
2017-06-21T13:47:04.593Z,4070
2017-06-21T13:48:17.114Z,4280
2017-06-21T13:49:29.372Z,4545
2017-06-21T13:50:41.888Z,5035
2017-06-21T13:51:54.439Z,4535
2017-06-21T13:53:07.035Z,3620
2017-06-21T13:54:19.275Z,4625
2017-06-21T13:55:31.514Z,4575
2017-06-21T13:56:44.086Z,4995
2017-06-21T13:57:56.339Z,4080
2017-06-21T13:59:08.602Z,4490
2017-06-21T14:00:21.156Z,3990
2017-06-21T14:01:33.419Z,3930
2017-06-21T14:02:45.948Z,3715
2017-06-21T14:03:58.196Z,3770
2017-06-21T14:05:10.464Z,3850
2017-06-21T14:06:23.010Z,4385
2017-06-21T14:07:35.561Z,4855
2017-06-21T14:08:48.106Z,5175
2017-06-21T14:10:00.352Z,5185
2017-06-21T14:11:12.615Z,5030
2017-06-21T14:12:25.168Z,4705
2017-06-21T14:13:37.437Z,4205
2017-06-21T14:14:50.002Z,5370
2017-06-21T14:16:01.971Z,5435
2017-06-21T14:17:14.224Z,4865
2017-06-21T14:18:26.745Z,4370
2017-06-21T14:19:38.687Z,4410
2017-06-21T14:20:51.240Z,3885
2017-06-21T14:22:03.803Z,2750
2017-06-21T14:23:16.084Z,2925
2017-06-21T14:24:28.616Z,3295
2017-06-21T14:25:41.146Z,4010
2017-06-21T14:26:53.391Z,3610
2017-06-21T14:28:05.941Z,3115
2017-06-21T14:29:18.208Z,3155
2017-06-21T14:30:30.758Z,3505
2017-06-21T14:31:43.296Z,3745
2017-06-21T14:32:55.545Z,3630
2017-06-21T14:34:07.812Z,3830
2017-06-21T14:35:20.338Z,3960
2017-06-21T14:36:32.559Z,3645
2017-06-21T14:37:45.106Z,3755
2017-06-21T14:38:57.673Z,3755
2017-06-21T14:40:09.922Z,3780
2017-06-21T14:41:21.867Z,4295
2017-06-21T14:42:34.433Z,4215
2017-06-21T14:43:46.683Z,4045
2017-06-21T14:44:59.230Z,3880
2017-06-21T14:46:11.819Z,3975
2017-06-21T14:47:23.751Z,3930
2017-06-21T14:48:36.267Z,3680
2017-06-21T14:49:48.815Z,3440
2017-06-21T14:51:01.364Z,1225
2017-06-21T14:52:13.930Z,370
2017-06-21T14:53:26.451Z,370
2017-06-21T14:54:38.693Z,325
2017-06-21T14:55:51.239Z,330
2017-06-21T14:57:03.781Z,330
2017-06-21T14:58:16.314Z,320
2017-06-21T14:59:28.549Z,315
2017-06-21T15:00:41.098Z,300
2017-06-21T15:01:53.622Z,290
2017-06-21T15:03:06.173Z,285
2017-06-21T15:04:18.731Z,270
2017-06-21T15:05:30.964Z,265
2017-06-21T15:06:43.538Z,260
2017-06-21T15:07:56.080Z,250
2017-06-21T15:09:08.302Z,245
2017-06-21T15:10:20.848Z,240
2017-06-21T15:11:32.489Z,240
2017-06-21T15:12:44.411Z,240
2017-06-21T15:13:56.062Z,245
2017-06-21T15:15:07.720Z,250
2017-06-21T15:16:19.327Z,260
2017-06-21T15:17:30.961Z,270
2017-06-21T15:18:42.868Z,270
2017-06-21T15:19:54.181Z,280
2017-06-21T15:21:06.124Z,260
2017-06-21T15:22:17.461Z,255
2017-06-21T15:23:30.016Z,260
2017-06-21T15:24:41.623Z,275
2017-06-21T15:25:53.549Z,290
2017-06-21T15:27:05.790Z,295
2017-06-21T15:28:17.704Z,305
2017-06-21T15:29:29.636Z,330
2017-06-21T15:30:40.967Z,315
2017-06-21T15:31:52.612Z,315
2017-06-21T15:33:03.939Z,310
2017-06-21T15:34:15.864Z,295
2017-06-21T15:35:27.813Z,305
2017-06-21T15:36:39.780Z,370
2017-06-21T15:37:51.954Z,390
2017-06-21T15:39:03.575Z,855
2017-06-21T15:40:15.817Z,2040
2017-06-21T15:41:27.464Z,2370
2017-06-21T15:42:39.683Z,2130
2017-06-21T15:43:51.279Z,1405
2017-06-21T15:45:02.580Z,445
2017-06-21T15:46:14.497Z,375
2017-06-21T15:47:25.848Z,410
2017-06-21T15:48:37.465Z,420
2017-06-21T15:49:48.785Z,375
2017-06-21T15:51:00.126Z,355
2017-06-21T15:52:12.069Z,310
2017-06-21T15:53:23.118Z,295
2017-06-21T15:54:34.160Z,280
2017-06-21T15:55:44.894Z,265
2017-06-21T15:56:56.833Z,250
2017-06-21T15:58:09.385Z,235
2017-06-21T15:59:21.648Z,230
2017-06-21T16:00:34.174Z,225
2017-06-21T16:01:46.712Z,225
2017-06-21T16:02:59.241Z,225
2017-06-21T16:04:11.508Z,225
2017-06-21T16:05:23.728Z,215
2017-06-21T16:06:35.978Z,210
2017-06-21T16:07:48.520Z,195
2017-06-21T16:09:00.762Z,190
2017-06-21T16:10:13.036Z,190
2017-06-21T16:11:25.283Z,190
2017-06-21T16:12:37.233Z,200
2017-06-21T16:13:49.480Z,205
2017-06-21T16:15:02.002Z,220
2017-06-21T16:16:14.539Z,235
2017-06-21T16:17:27.084Z,235
2017-06-21T16:18:39.633Z,235
2017-06-21T16:19:52.158Z,230
2017-06-21T16:21:04.709Z,225
2017-06-21T16:22:16.926Z,225
2017-06-21T16:23:29.472Z,230
2017-06-21T16:24:41.367Z,230
2017-06-21T16:25:53.606Z,235
2017-06-21T16:27:06.154Z,230
2017-06-21T16:28:18.106Z,230
2017-06-21T16:29:30.644Z,235
2017-06-21T16:30:43.192Z,240
2017-06-21T16:31:55.739Z,250
2017-06-21T16:33:08.259Z,255